Airfield :







YOU CAN JOIN US ON...

 
LOGIN :

Register | Disclaimer

   EN    FR    IT 

 









Legend :    VFR   Marginal VFR   IFR   Intensive IFR   Very Intensive IFR
Visi :
Ceiling :
>= 8 km
>= 3000ft
5 to 8 km
1000 to 3000 ft
1500m to 5 km
500 to 1000 ft
800 to 1500m
200 to 500 ft
< 800m
< 200 ft
Symbols :   Thunderstorms  Fog  Heavy snow  Heavy precipitations  Wind > 20 kt







- Airport Elevation : 626 ft


KCAR - Caribou Municipal

CURRENT METAR :
  • 161354Z AUTO 30006KT 10SM BKN025 OVC031 13/08 A2993 RMK AO2 SLP139 T01330083

EXPIRED METARs :
  • 161337Z AUTO 31010KT 10SM OVC029 13/08 A2993 RMK AO2 T01330083
  • 161254Z AUTO 31008KT 10SM SCT033 OVC047 13/08 A2993 RMK AO2 SLP140 T01280083
  • 161154Z AUTO 25004KT 10SM OVC034 11/08 A2993 RMK AO2 SLP140 70001 T01060078 10111 20083 51009

TAF KCAR
Valid from the 16 at 12:00 until the 17 at 12:00 UTC


161120Z 1612/1712 29006KT P6SM BKN027
FM161500 31008KT P6SM OVC018
FM161800 32009KT P6SM OVC020
FM170400 35005KT P6SM BKN027
FM171100 35004KT P6SM BKN035
No reported NOTAMs for that airfield.



MET'MAP, your aeronautical weather chart ! - Copyright ORBIFLY December 2007 - Disclaimer

ORBIFLY MET'MAP TEAM :

Programming & Development : Alexandra Zaïnal
Concept & Development : Baudouin d'Aumeries
Co-Development & Prog : Marc-Olivier Méhu
Technical & hardware support : Manuel Goepfert

Contact : metmap@orbifly.com




SOURCES & CREDITS :

   NOAA